Terminal Aerodrome Forecast
Issued by NWS Wilmington, OH

Home | Current Version | Previous Version | Text Only | Print | Product List | Glossary On
Versions: 1 2 3 4 5 6 7 8 9 10 11 12 13 14 15 16 17 18 19 20 21 22 23 24 25 26 27 28 29
944
FTUS41 KILN 302332
TAFILN
TAF
KILN 302332Z 0100/0124 13008KT 4SM -SHRA OVC015
      TEMPO 0101/0105 2SM SHRA
     FM010800 16006KT 4SM BR OVC006
     FM011400 23006KT P6SM BKN012
     FM011800 25006KT P6SM FEW025 BKN035
     FM012100 27005KT P6SM VCSH SCT025 BKN040=

USA.gov is the U.S. government's official web portal to all federal, state and local government web resources and services.